Corinth, Mississippi
Current Conditions -  °F | °C
As of 9:15 PM on Monday 26 Jan 2015 (Local Time) from KCRX Reporting Station
Clear Clear  
Wind Chill: 30°   Ceiling: Unl
Heat Index: 34°   Visibility: 10mi
Dew Point: 30°   Wind: 5mph
Humidity: 87%   Direction: 170°S
Pressure: 29.97"   Gusts: NA
Location:  34.93°N, 88.53°W
Report Text: KCRX 270315Z AUTO 17004KT 10SM CLR 01/M01 A2997 RMK AO2
Loading
Personal Weather Stations






























Interactive Weather Map New forecast layout! Learn more

10-Day Weather Forecast

Advertisements
Track Severe Weather on mobile